Map

Track Data

SID SEASON NUMBER BASIN SUBBASIN NAME ISO_TIME NATURE LAT LON WMO_WIND WMO_PRES WMO_AGENCY TRACK_TYPE DIST2LAND LANDFALL IFLAG USA_AGENCY USA_ATCF_ID USA_LAT USA_LON USA_RECORD USA_STATUS USA_WIND USA_PRES USA_SSHS USA_R34_NE USA_R34_SE USA_R34_SW USA_R34_NW USA_R50_NE USA_R50_SE USA_R50_SW USA_R50_NW USA_R64_NE USA_R64_SE USA_R64_SW USA_R64_NW USA_POCI USA_ROCI USA_RMW USA_EYE TOKYO_LAT TOKYO_LON TOKYO_GRADE TOKYO_WIND TOKYO_PRES TOKYO_R50_DIR TOKYO_R50_LONG TOKYO_R50_SHORT TOKYO_R30_DIR TOKYO_R30_LONG TOKYO_R30_SHORT TOKYO_LAND CMA_LAT CMA_LON CMA_CAT CMA_WIND CMA_PRES HKO_LAT HKO_LON HKO_CAT HKO_WIND HKO_PRES NEWDELHI_LAT NEWDELHI_LON NEWDELHI_GRADE NEWDELHI_WIND NEWDELHI_PRES NEWDELHI_CI NEWDELHI_DP NEWDELHI_POCI REUNION_LAT REUNION_LON REUNION_TYPE REUNION_WIND REUNION_PRES REUNION_TNUM REUNION_CI REUNION_RMW REUNION_R34_NE REUNION_R34_SE REUNION_R34_SW REUNION_R34_NW REUNION_R50_NE REUNION_R50_SE REUNION_R50_SW REUNION_R50_NW REUNION_R64_NE REUNION_R64_SE REUNION_R64_SW REUNION_R64_NW BOM_LAT BOM_LON BOM_TYPE BOM_WIND BOM_PRES BOM_TNUM BOM_CI BOM_RMW BOM_R34_NE BOM_R34_SE BOM_R34_SW BOM_R34_NW BOM_R50_NE BOM_R50_SE BOM_R50_SW BOM_R50_NW BOM_R64_NE BOM_R64_SE BOM_R64_SW BOM_R64_NW BOM_ROCI BOM_POCI BOM_EYE BOM_POS_METHOD BOM_PRES_METHOD NADI_LAT NADI_LON NADI_CAT NADI_WIND NADI_PRES WELLINGTON_LAT WELLINGTON_LON WELLINGTON_WIND WELLINGTON_PRES DS824_LAT DS824_LON DS824_STAGE DS824_WIND DS824_PRES TD9636_LAT TD9636_LON TD9636_STAGE TD9636_WIND TD9636_PRES TD9635_LAT TD9635_LON TD9635_WIND TD9635_PRES TD9635_ROCI NEUMANN_LAT NEUMANN_LON NEUMANN_CLASS NEUMANN_WIND NEUMANN_PRES MLC_LAT MLC_LON MLC_CLASS MLC_WIND MLC_PRES USA_GUST BOM_GUST BOM_GUST_PER REUNION_GUST REUNION_GUST_PER USA_SEAHGT USA_SEARAD_NE USA_SEARAD_SE USA_SEARAD_SW USA_SEARAD_NW STORM_SPEED STORM_DIR
1972320N10091 1972 127 NI BB NOT_NAMED 1972-11-15 03:00:00 NR 9.50000 90.5000 main 678 678 __________O___ -1 9.50000 90.5000 1 6 288
1972320N10091 1972 127 NI BB NOT_NAMED 1972-11-15 06:00:00 TS 9.58917 90.2266 main 710 710 O________OP___ jtwc_io IO141972 9.60000 90.2000 -1 9.60000 90.2000 TC 9.57833 90.2533 1 5 286
1972320N10091 1972 127 NI BB NOT_NAMED 1972-11-15 09:00:00 TS 9.64513 90.0022 main 727 727 P________PP___ IO141972 9.63754 89.9850 -1 9.63754 89.9850 TC 9.65524 90.0252 1 4 287
1972320N10091 1972 127 NI BB NOT_NAMED 1972-11-15 12:00:00 TS 9.71181 89.8138 main 752 752 O________OP___ jtwc_io IO141972 9.70000 89.8000 -1 9.70000 89.8000 TC 9.72952 89.8345 1 4 296
1972320N10091 1972 127 NI BB NOT_NAMED 1972-11-15 15:00:00 TS 9.79999 89.6800 main 767 767 P________PO___ IO141972 9.79999 89.6700 -1 9.79999 89.6700 TC 9.80000 89.7000 1 3 311
1972320N10091 1972 127 NI BB NOT_NAMED 1972-11-15 18:00:00 TS 9.88892 89.6104 main 783 783 O________OP___ jtwc_io IO141972 9.90000 89.6000 -1 9.90000 89.6000 TC 9.86676 89.6311 1 2 336
1972320N10091 1972 127 NI BB NOT_NAMED 1972-11-15 21:00:00 TS 9.94494 89.6049 main 783 783 P________PP___ IO141972 9.94999 89.6075 -1 9.94999 89.6075 TC 9.93484 89.5998 1 1 0
1972320N10091 1972 127 NI BB NOT_NAMED 1972-11-16 00:00:00 TS 10.0035 89.5895 main 790 790 O________OP___ jtwc_io IO141972 10.0000 89.6000 XX 45 -5 10.0000 89.6000 TC 45 10.0105 89.5686 1 2 321
1972320N10091 1972 127 NI BB NOT_NAMED 1972-11-16 03:00:00 TS 10.0900 89.4867 main 805 805 P________PO___ IO141972 10.0850 89.4800 XX 45 -5 10.0850 89.4800 TC 45 10.1000 89.5000 1 3 306
1972320N10091 1972 127 NI BB NOT_NAMED 1972-11-16 06:00:00 TS 10.2049 89.3076 main 829 829 O________OP___ jtwc_io IO141972 10.2000 89.3000 XX 45 -5 10.2000 89.3000 TC 45 10.2148 89.3229 1 5 304
1972320N10091 1972 127 NI BB NOT_NAMED 1972-11-16 09:00:00 TS 10.3476 89.1026 main 841 833 P________PP___ IO141972 10.3500 89.1000 XX 47 -5 10.3500 89.1000 TC 47 10.3427 89.1077 1 5 305
1972320N10091 1972 127 NI BB NOT_NAMED 1972-11-16 12:00:00 TS 10.4914 88.8962 main 840 829 O________OP___ jtwc_io IO141972 10.5000 88.9000 XX 50 -5 10.5000 88.9000 TC 50 10.4742 88.8886 1 5 304
1972320N10091 1972 127 NI BB NOT_NAMED 1972-11-16 15:00:00 TS 10.6050 88.7183 main 829 823 P________PO___ IO141972 10.6075 88.7275 XX 52 -5 10.6075 88.7275 TC 52 10.6000 88.7000 2 4 306
1972320N10091 1972 127 NI BB NOT_NAMED 1972-11-16 18:00:00 TS 10.6996 88.6017 main 823 818 O________OP___ jtwc_io IO141972 10.7000 88.6000 XX 55 -5 10.7000 88.6000 TC 55 10.6989 88.6052 2 3 319
1972320N10091 1972 127 NI BB NOT_NAMED 1972-11-16 21:00:00 TS 10.7974 88.5474 main 818 818 P________PP___ IO141972 10.8000 88.5500 XX 57 -5 10.8000 88.5500 TC 57 10.7923 88.5423 2 2 332
1972320N10091 1972 127 NI BB NOT_NAMED 1972-11-17 00:00:00 TS 10.8965 88.4944 main 823 813 O________OP___ jtwc_io IO141972 10.9000 88.5000 XX 60 -5 10.9000 88.5000 TC 60 10.8896 88.4833 2 3 319
1972320N10091 1972 127 NI BB NOT_NAMED 1972-11-17 03:00:00 TS 10.9900 88.3816 main 818 803 P________PO___ IO141972 10.9850 88.3725 XX 60 -5 10.9850 88.3725 TC 60 11.0000 88.4000 2 4 308
1972320N10091 1972 127 NI BB NOT_NAMED 1972-11-17 06:00:00 TS 11.1133 88.2125 main 803 793 O________OP___ jtwc_io IO141972 11.1000 88.2000 XX 60 -5 11.1000 88.2000 TC 60 11.1398 88.2376 2 5 310
1972320N10091 1972 127 NI BB NOT_NAMED 1972-11-17 09:00:00 TS 11.2976 88.0118 main 793 782 P________PP___ IO141972 11.3000 87.9926 XX 60 -5 11.3000 87.9926 TC 60 11.2926 88.0502 2 5 314
1972320N10091 1972 127 NI BB NOT_NAMED 1972-11-17 12:00:00 TS 11.4831 87.8209 main 782 772 O________OP___ jtwc_io IO141972 11.5000 87.8000 XX 60 -5 11.5000 87.8000 TC 60 11.4492 87.8626 2 4 314
1972320N10091 1972 127 NI BB NOT_NAMED 1972-11-17 15:00:00 TS 11.6050 87.6850 main 777 768 P________PO___ IO141972 11.6075 87.6775 XX 60 -5 11.6075 87.6775 TC 60 11.6000 87.7000 2 3 316
1972320N10091 1972 127 NI BB NOT_NAMED 1972-11-17 18:00:00 TS 11.7121 87.5974 main 773 769 O________OP___ jtwc_io IO141972 11.7000 87.6000 XX 60 -5 11.7000 87.6000 TC 60 11.7362 87.5921 2 3 330
1972320N10091 1972 127 NI BB NOT_NAMED 1972-11-17 21:00:00 TS 11.8550 87.5375 main 768 761 P________PP___ IO141972 11.8500 87.5500 XX 62 -5 11.8500 87.5500 TC 62 11.8649 87.5124 2 3 339
1972320N10091 1972 127 NI BB NOT_NAMED 1972-11-18 00:00:00 TS 11.9954 87.4838 main 761 745 O________OP___ jtwc_io IO141972 12.0000 87.5000 XX 65 -5 12.0000 87.5000 TC 65 11.9862 87.4515 2 3 331
1972320N10091 1972 127 NI BB NOT_NAMED 1972-11-18 03:00:00 TS 12.1050 87.3950 main 745 729 P________PO___ IO141972 12.1075 87.3925 XX 65 -5 12.1075 87.3925 TC 65 12.1000 87.4000 4 3 321
1972320N10091 1972 127 NI BB NOT_NAMED 1972-11-18 06:00:00 TS 12.1997 87.3156 main 729 722 O________OP___ jtwc_io IO141972 12.2000 87.3000 XX 65 -5 12.2000 87.3000 TC 65 12.1990 87.3468 4 2 333
1972320N10091 1972 127 NI BB NOT_NAMED 1972-11-18 09:00:00 TS 12.2975 87.2999 main 722 714 P________PP___ IO141972 12.3000 87.3000 XX 65 -5 12.3000 87.3000 TC 65 12.2925 87.2999 4 2 347
1972320N10091 1972 127 NI BB NOT_NAMED 1972-11-18 12:00:00 TS 12.3966 87.2844 main 714 699 O________OP___ jtwc_io IO141972 12.4000 87.3000 XX 65 -5 12.4000 87.3000 TC 65 12.3897 87.2531 4 2 336
1972320N10091 1972 127 NI BB NOT_NAMED 1972-11-18 15:00:00 TS 12.4950 87.2050 main 699 683 P________PO___ IO141972 12.4925 87.2075 XX 65 -5 12.4925 87.2075 TC 65 12.5000 87.2000 4 3 321
1972320N10091 1972 127 NI BB NOT_NAMED 1972-11-18 18:00:00 TS 12.6105 87.1067 main 683 668 O________OP___ jtwc_io IO141972 12.6000 87.1000 XX 65 -5 12.6000 87.1000 TC 65 12.6316 87.1201 4 3 328
1972320N10091 1972 127 NI BB NOT_NAMED 1972-11-18 21:00:00 TS 12.7492 87.0400 main 668 653 P________PP___ IO141972 12.7350 87.0425 XX 65 -5 12.7350 87.0425 TC 65 12.7775 87.0351 4 3 338
1972320N10091 1972 127 NI BB NOT_NAMED 1972-11-19 00:00:00 TS 12.9116 86.9859 main 653 630 O________OP___ jtwc_io IO141972 12.9000 87.0000 XX 65 -5 12.9000 87.0000 TC 65 12.9347 86.9576 4 4 342
1972320N10091 1972 127 NI BB NOT_NAMED 1972-11-19 03:00:00 TS 13.1000 86.9283 main 630 617 P________PO___ IO141972 13.1000 86.9425 XX 67 -5 13.1000 86.9425 TC 67 13.1000 86.9000 4 4 346
1972320N10091 1972 127 NI BB NOT_NAMED 1972-11-19 06:00:00 TS 13.2947 86.8860 main 617 603 O________OP___ jtwc_io IO141972 13.3000 86.9000 XX 70 -5 13.3000 86.9000 TC 70 13.2840 86.8581 4 4 351
1972320N10091 1972 127 NI BB NOT_NAMED 1972-11-19 09:00:00 TS 13.4625 86.8700 main 603 597 P________PP___ IO141972 13.4575 86.8850 XX 70 -5 13.4575 86.8850 TC 70 13.4724 86.8400 4 3 0
1972320N10091 1972 127 NI BB NOT_NAMED 1972-11-19 12:00:00 TS 13.6165 86.8840 main 597 581 O________OP___ jtwc_io IO141972 13.6000 86.9000 XX 70 -5 13.6000 86.9000 TC 70 13.6496 86.8519 4 3 7
1972320N10091 1972 127 NI BB NOT_NAMED 1972-11-19 15:00:00 TS 13.7717 86.9183 main 581 580 P________PO___ IO141972 13.7575 86.9275 XX 70 -5 13.7575 86.9275 TC 70 13.8000 86.9000 4 3 22
1972320N10091 1972 127 NI BB NOT_NAMED 1972-11-19 18:00:00 TS 13.9053 87.0031 main 580 578 O________OP___ jtwc_io IO141972 13.9000 87.0000 XX 70 -5 13.9000 87.0000 TC 70 13.9160 87.0093 4 3 42
1972320N10091 1972 127 NI BB NOT_NAMED 1972-11-19 21:00:00 TS 14.0159 87.1499 main 578 574 P________PP___ IO141972 14.0225 87.1500 XX 70 -5 14.0225 87.1500 TC 70 14.0026 87.1499 4 3 57
1972320N10091 1972 127 NI BB NOT_NAMED 1972-11-20 00:00:00 TS 14.0876 87.2969 main 581 581 O________OP___ jtwc_io IO141972 14.1000 87.3000 XX 70 -5 14.1000 87.3000 TC 70 14.0629 87.2906 4 2 67
1972320N10091 1972 127 NI BB NOT_NAMED 1972-11-20 03:00:00 TS 14.1100 87.3817 main 587 587 P________PO___ IO141972 14.1150 87.3725 XX 70 -5 14.1150 87.3725 TC 70 14.1000 87.4000 4 1 80
1972320N10091 1972 127 NI BB NOT_NAMED 1972-11-20 06:00:00 TS 14.1072 87.4120 main 587 587 O________OP___ jtwc_io IO141972 14.1000 87.4000 XX 70 -5 14.1000 87.4000 TC 70 14.1215 87.4360 4 0 94
1972320N10091 1972 127 NI BB NOT_NAMED 1972-11-20 09:00:00 TS 14.1075 87.4175 main 587 587 P________PP___ IO141972 14.1000 87.4075 XX 67 -5 14.1000 87.4075 TC 67 14.1225 87.4376 4 0 0
1972320N10091 1972 127 NI BB NOT_NAMED 1972-11-20 12:00:00 TS 14.1041 87.4068 main 587 587 O________OP___ jtwc_io IO141972 14.1000 87.4000 XX 65 -5 14.1000 87.4000 TC 65 14.1122 87.4203 4 0 0
1972320N10091 1972 127 NI BB NOT_NAMED 1972-11-20 15:00:00 TS 14.1000 87.4000 main 587 587 P________PO___ IO141972 14.1000 87.4000 XX 65 -5 14.1000 87.4000 TC 65 14.1000 87.4000 4 0 68
1972320N10091 1972 127 NI BB NOT_NAMED 1972-11-20 18:00:00 TS 14.1186 87.4463 main 587 587 O________OP___ jtwc_io IO141972 14.1000 87.4000 XX 65 -5 14.1000 87.4000 TC 65 14.1558 87.5389 4 1 67
1972320N10091 1972 127 NI BB NOT_NAMED 1972-11-20 21:00:00 TS 14.1443 87.5105 main 593 593 P________PP___ IO141972 14.1150 87.4375 XX 67 -5 14.1150 87.4375 TC 67 14.2030 87.6564 4 0 69
1972320N10091 1972 127 NI BB NOT_NAMED 1972-11-21 00:00:00 TS 14.1329 87.4819 main 593 587 O________OP___ jtwc_io IO141972 14.1000 87.4000 XX 70 -5 14.1000 87.4000 TC 70 14.1987 87.6457 4 2 250
1972320N10091 1972 127 NI BB NOT_NAMED 1972-11-21 03:00:00 TS 14.0828 87.3388 main 581 573 P________PO___ IO141972 14.0742 87.3082 XX 75 -5 14.0742 87.3082 TC 75 14.1000 87.4000 4 7 246
1972320N10091 1972 127 NI BB NOT_NAMED 1972-11-21 06:00:00 TS 13.8602 86.8393 main 565 527 O________OP___ jtwc_io IO141972 13.9000 86.9000 XX 80 -5 13.9000 86.9000 TC 80 13.7806 86.7180 4 16 244
1972320N10091 1972 127 NI BB NOT_NAMED 1972-11-21 09:00:00 TS 13.3874 85.8722 main 527 490 P________PP___ IO141972 13.3939 85.9007 XX 85 -5 13.3939 85.9007 TC 85 13.3745 85.8149 4 22 245
1972320N10091 1972 127 NI BB NOT_NAMED 1972-11-21 12:00:00 TS 12.9269 84.8184 main 489 417 O________OP___ jtwc_io IO141972 12.9000 84.8000 XX 90 -5 12.9000 84.8000 TC 90 12.9806 84.8550 4 19 250
1972320N10091 1972 127 NI BB NOT_NAMED 1972-11-21 15:00:00 TS 12.7396 84.0688 main 417 362 P________PO___ IO141972 12.7595 84.1033 XX 90 -5 12.7595 84.1033 TC 90 12.7000 84.0000 4 12 262
1972320N10091 1972 127 NI BB NOT_NAMED 1972-11-21 18:00:00 TS 12.7550 83.5588 main 362 319 O________OP___ jtwc_io IO141972 12.8000 83.6000 XX 90 -5 12.8000 83.6000 TC 90 12.6649 83.4765 4 9 276
1972320N10091 1972 127 NI BB NOT_NAMED 1972-11-21 21:00:00 TS 12.8367 83.1383 main 308 272 P________PP___ IO141972 12.8773 83.1701 XX 82 -5 12.8773 83.1701 TC 82 12.7555 83.0746 4 8 286
1972320N10091 1972 127 NI BB NOT_NAMED 1972-11-22 00:00:00 TS 12.9728 82.7784 main 272 228 O________OP___ jtwc_io IO141972 13.0000 82.8000 XX 75 -5 13.0000 82.8000 TC 75 12.9184 82.7352 4 8 290
1972320N10091 1972 127 NI BB NOT_NAMED 1972-11-22 03:00:00 TS 13.0949 82.4049 main 228 184 P________PO___ IO141972 13.0924 82.4074 XX 70 -5 13.0924 82.4074 TC 70 13.1000 82.4000 4 8 287
1972320N10091 1972 127 NI BB NOT_NAMED 1972-11-22 06:00:00 TS 13.2045 81.9954 main 184 140 O________OP___ jtwc_io IO141972 13.2000 82.0000 XX 65 -5 13.2000 82.0000 TC 65 13.2136 81.9861 4 9 287
1972320N10091 1972 127 NI BB NOT_NAMED 1972-11-22 09:00:00 TS 13.3449 81.5550 main 140 86 P________PP___ IO141972 13.3500 81.5500 XX 55 -5 13.3500 81.5500 TC 55 13.3347 81.5648 4 9 288
1972320N10091 1972 127 NI BB NOT_NAMED 1972-11-22 12:00:00 TS 13.4878 81.1120 main 86 43 O________OP___ jtwc_io IO141972 13.5000 81.1000 XX 45 -5 13.5000 81.1000 TC 45 13.4635 81.1361 4 9 287
1972320N10091 1972 127 NI BB NOT_NAMED 1972-11-22 15:00:00 TS 13.5999 80.6999 main 43 0 P________PO___ IO141972 13.5999 80.6999 XX 42 -5 13.5999 80.6999 TC 42 13.6000 80.7000 4 8 286
1972320N10091 1972 127 NI BB NOT_NAMED 1972-11-22 18:00:00 TS 13.7175 80.2828 main 0 0 O________OP___ jtwc_io IO141972 13.7000 80.3000 XX 40 -5 13.7000 80.3000 TC 40 13.7438 80.2569 4 9 287
1972320N10091 1972 127 NI BB NOT_NAMED 1972-11-22 21:00:00 TS 13.8615 79.8393 main 0 0 P________PP___ IO141972 13.8377 79.8627 XX 37 -5 13.8377 79.8627 TC 37 13.8932 79.8080 4 9 289
1972320N10091 1972 127 NI BB NOT_NAMED 1972-11-23 00:00:00 TS 14.0230 79.3776 main 0 0 O________OP___ jtwc_io IO141972 14.0000 79.4000 XX 35 -5 14.0000 79.4000 TC 35 14.0460 79.3552 4 10 290
1972320N10091 1972 127 NI BB NOT_NAMED 1972-11-23 03:00:00 NR 14.2000 78.9000 main 0 __________O___ IO141972 XX -5 TC 14.2000 78.9000 6 10 291

About IBTrACS Database

This database is a web-friendly format of International Best Track Archive for Climate Stewardship (IBTrACS), a global best track data archive curated by NOAA dating back to 1842.

Updated: 2021-10-08